sensor_id;sensor_type;location;lat;lon;timestamp;pressure;altitude;pressure_sealevel;temperature;humidity
63343;BME280;49465;57.664;39.686;2023-03-03T00:01:22;98634.22;;;1.69;57.04
63343;BME280;49465;57.664;39.686;2023-03-03T00:03:52;98638.06;;;1.62;57.28
63343;BME280;49465;57.664;39.686;2023-03-03T00:06:20;98631.91;;;1.65;57.26
63343;BME280;49465;57.664;39.686;2023-03-03T00:08:49;98628.06;;;1.72;57.38
63343;BME280;49465;57.664;39.686;2023-03-03T00:11:18;98620.66;;;1.66;57.15
63343;BME280;49465;57.664;39.686;2023-03-03T00:13:53;98624.97;;;1.81;57.05
63343;BME280;49465;57.664;39.686;2023-03-03T00:16:35;98622.88;;;1.88;56.82
63343;BME280;49465;57.664;39.686;2023-03-03T00:19:25;98614.53;;;1.98;56.36
63343;BME280;49465;57.664;39.686;2023-03-03T00:21:52;98625.31;;;1.75;56.80
63343;BME280;49465;57.664;39.686;2023-03-03T00:24:38;98621.03;;;1.90;57.46
63343;BME280;49465;57.664;39.686;2023-03-03T00:29:58;98624.22;;;1.79;57.25
63343;BME280;49465;57.664;39.686;2023-03-03T00:32:32;98616.56;;;1.77;57.17
63343;BME280;49465;57.664;39.686;2023-03-03T00:35:24;98614.94;;;2.07;56.08
63343;BME280;49465;57.664;39.686;2023-03-03T00:37:58;98621.22;;;1.87;57.05
63343;BME280;49465;57.664;39.686;2023-03-03T00:40:36;98611.78;;;2.02;56.94
63343;BME280;49465;57.664;39.686;2023-03-03T00:45:48;98609.75;;;1.76;57.17
63343;BME280;49465;57.664;39.686;2023-03-03T00:53:59;98612.53;;;1.88;57.46
63343;BME280;49465;57.664;39.686;2023-03-03T00:56:28;98610.56;;;1.77;57.26
63343;BME280;49465;57.664;39.686;2023-03-03T00:58:56;98607.38;;;1.88;57.03
63343;BME280;49465;57.664;39.686;2023-03-03T01:01:28;98599.41;;;1.76;57.89
63343;BME280;49465;57.664;39.686;2023-03-03T01:04:00;98597.97;;;1.71;57.69
63343;BME280;49465;57.664;39.686;2023-03-03T01:06:28;98601.13;;;1.76;57.66
63343;BME280;49465;57.664;39.686;2023-03-03T01:08:55;98595.63;;;1.98;56.70
63343;BME280;49465;57.664;39.686;2023-03-03T01:11:26;98594.38;;;1.89;57.57
63343;BME280;49465;57.664;39.686;2023-03-03T01:13:59;98588.09;;;1.93;57.56
63343;BME280;49465;57.664;39.686;2023-03-03T01:16:29;98595.63;;;1.82;56.97
63343;BME280;49465;57.664;39.686;2023-03-03T01:18:55;98582.63;;;1.84;57.15
63343;BME280;49465;57.664;39.686;2023-03-03T01:21:27;98586.25;;;1.95;57.00
63343;BME280;49465;57.664;39.686;2023-03-03T01:23:57;98593.69;;;1.86;57.91
63343;BME280;49465;57.664;39.686;2023-03-03T01:26:26;98587.88;;;1.82;57.49
63343;BME280;49465;57.664;39.686;2023-03-03T01:28:55;98586.09;;;1.98;57.59
63343;BME280;49465;57.664;39.686;2023-03-03T01:31:22;98580.44;;;1.92;57.11
63343;BME280;49465;57.664;39.686;2023-03-03T01:33:48;98578.47;;;1.81;57.33
63343;BME280;49465;57.664;39.686;2023-03-03T01:36:15;98572.03;;;1.88;57.35
63343;BME280;49465;57.664;39.686;2023-03-03T01:38:50;98580.66;;;2.03;57.24
63343;BME280;49465;57.664;39.686;2023-03-03T01:41:19;98571.09;;;1.89;57.40
63343;BME280;49465;57.664;39.686;2023-03-03T01:43:48;98571.34;;;2.01;57.06
63343;BME280;49465;57.664;39.686;2023-03-03T01:48:52;98567.06;;;2.00;57.23
63343;BME280;49465;57.664;39.686;2023-03-03T01:51:33;98566.72;;;2.06;56.92
63343;BME280;49465;57.664;39.686;2023-03-03T01:54:14;98567.50;;;1.92;57.34
63343;BME280;49465;57.664;39.686;2023-03-03T01:56:44;98558.09;;;1.91;57.38
63343;BME280;49465;57.664;39.686;2023-03-03T01:59:22;98564.13;;;2.22;57.04
63343;BME280;49465;57.664;39.686;2023-03-03T02:01:51;98562.50;;;2.05;56.87
63343;BME280;49465;57.664;39.686;2023-03-03T02:04:18;98556.22;;;2.09;56.96
63343;BME280;49465;57.664;39.686;2023-03-03T02:06:51;98551.78;;;2.11;56.78
63343;BME280;49465;57.664;39.686;2023-03-03T02:12:18;98563.69;;;2.13;56.45
63343;BME280;49465;57.664;39.686;2023-03-03T02:14:45;98563.69;;;2.13;56.37
63343;BME280;49465;57.664;39.686;2023-03-03T02:17:12;98558.97;;;2.06;56.21
63343;BME280;49465;57.664;39.686;2023-03-03T02:22:10;98559.63;;;2.09;56.59
63343;BME280;49465;57.664;39.686;2023-03-03T02:24:52;98555.16;;;2.27;56.07
63343;BME280;49465;57.664;39.686;2023-03-03T02:27:26;98558.81;;;2.09;56.28
63343;BME280;49465;57.664;39.686;2023-03-03T02:29:54;98560.13;;;2.16;56.19
63343;BME280;49465;57.664;39.686;2023-03-03T02:32:23;98550.16;;;2.24;55.82
63343;BME280;49465;57.664;39.686;2023-03-03T02:34:53;98554.47;;;2.09;56.03
63343;BME280;49465;57.664;39.686;2023-03-03T02:37:19;98549.94;;;2.13;56.06
63343;BME280;49465;57.664;39.686;2023-03-03T02:39:46;98547.63;;;2.08;56.06
63343;BME280;49465;57.664;39.686;2023-03-03T02:42:22;98550.56;;;2.32;56.29
63343;BME280;49465;57.664;39.686;2023-03-03T02:44:53;98542.72;;;2.04;56.33
63343;BME280;49465;57.664;39.686;2023-03-03T02:47:19;98548.63;;;2.06;56.30
63343;BME280;49465;57.664;39.686;2023-03-03T02:49:48;98552.72;;;2.10;56.50
63343;BME280;49465;57.664;39.686;2023-03-03T02:52:14;98542.31;;;1.95;56.93
63343;BME280;49465;57.664;39.686;2023-03-03T02:54:46;98541.72;;;2.06;57.21
63343;BME280;49465;57.664;39.686;2023-03-03T02:57:12;98538.25;;;1.91;56.55
63343;BME280;49465;57.664;39.686;2023-03-03T02:59:39;98534.22;;;2.02;56.20
63343;BME280;49465;57.664;39.686;2023-03-03T03:02:08;98534.56;;;1.95;57.12
63343;BME280;49465;57.664;39.686;2023-03-03T03:04:37;98530.06;;;1.99;56.53
63343;BME280;49465;57.664;39.686;2023-03-03T03:07:03;98527.91;;;1.91;56.35
63343;BME280;49465;57.664;39.686;2023-03-03T03:09:30;98530.09;;;1.83;57.28
63343;BME280;49465;57.664;39.686;2023-03-03T03:11:59;98529.31;;;1.97;56.75
63343;BME280;49465;57.664;39.686;2023-03-03T03:14:27;98523.25;;;1.98;56.68
63343;BME280;49465;57.664;39.686;2023-03-03T03:16:56;98526.06;;;1.93;56.77
63343;BME280;49465;57.664;39.686;2023-03-03T03:19:23;98523.69;;;1.90;57.31
63343;BME280;49465;57.664;39.686;2023-03-03T03:21:54;98528.25;;;1.85;57.14
63343;BME280;49465;57.664;39.686;2023-03-03T03:24:23;98527.25;;;1.88;57.90
63343;BME280;49465;57.664;39.686;2023-03-03T03:26:50;98525.84;;;1.82;57.50
63343;BME280;49465;57.664;39.686;2023-03-03T03:29:16;98527.34;;;1.86;57.17
63343;BME280;49465;57.664;39.686;2023-03-03T03:31:45;98532.34;;;1.89;57.18
63343;BME280;49465;57.664;39.686;2023-03-03T03:34:12;98523.41;;;1.65;57.84
63343;BME280;49465;57.664;39.686;2023-03-03T03:36:44;98535.50;;;1.94;57.15
63343;BME280;49465;57.664;39.686;2023-03-03T03:39:14;98538.25;;;1.91;57.12
63343;BME280;49465;57.664;39.686;2023-03-03T03:41:44;98527.00;;;1.92;57.50
63343;BME280;49465;57.664;39.686;2023-03-03T03:44:10;98528.56;;;1.95;57.08
63343;BME280;49465;57.664;39.686;2023-03-03T03:46:39;98523.50;;;2.08;56.80
63343;BME280;49465;57.664;39.686;2023-03-03T03:49:12;98527.75;;;1.94;57.55
63343;BME280;49465;57.664;39.686;2023-03-03T03:51:41;98523.69;;;1.90;56.83
63343;BME280;49465;57.664;39.686;2023-03-03T03:54:07;98519.44;;;2.04;56.52
63343;BME280;49465;57.664;39.686;2023-03-03T03:56:39;98517.00;;;2.16;56.98
63343;BME280;49465;57.664;39.686;2023-03-03T03:59:06;98502.28;;;2.03;56.89
63343;BME280;49465;57.664;39.686;2023-03-03T04:01:38;98502.66;;;2.11;56.40
63343;BME280;49465;57.664;39.686;2023-03-03T04:04:07;98514.13;;;2.07;55.93
63343;BME280;49465;57.664;39.686;2023-03-03T04:06:34;98517.34;;;2.10;55.95
63343;BME280;49465;57.664;39.686;2023-03-03T04:09:03;98515.59;;;2.11;55.79
63343;BME280;49465;57.664;39.686;2023-03-03T04:11:30;98510.06;;;2.17;55.94
63343;BME280;49465;57.664;39.686;2023-03-03T04:13:59;98517.28;;;2.26;56.06
63343;BME280;49465;57.664;39.686;2023-03-03T04:16:31;98514.50;;;2.29;55.85
63343;BME280;49465;57.664;39.686;2023-03-03T04:18:57;98515.97;;;2.19;55.87
63343;BME280;49465;57.664;39.686;2023-03-03T04:21:27;98518.69;;;2.32;55.84
63343;BME280;49465;57.664;39.686;2023-03-03T04:23:59;98512.59;;;2.33;55.76
63343;BME280;49465;57.664;39.686;2023-03-03T04:26:28;98510.06;;;2.17;55.32
63343;BME280;49465;57.664;39.686;2023-03-03T04:29:00;98517.75;;;2.33;55.50
63343;BME280;49465;57.664;39.686;2023-03-03T04:31:31;98513.38;;;2.19;55.79
63343;BME280;49465;57.664;39.686;2023-03-03T04:33:58;98513.47;;;2.17;55.87
63343;BME280;49465;57.664;39.686;2023-03-03T04:36:25;98517.16;;;2.13;55.89
63343;BME280;49465;57.664;39.686;2023-03-03T04:38:54;98507.75;;;2.12;56.25
63343;BME280;49465;57.664;39.686;2023-03-03T04:41:23;98516.34;;;2.27;56.33
63343;BME280;49465;57.664;39.686;2023-03-03T04:43:49;98503.41;;;2.13;55.88
63343;BME280;49465;57.664;39.686;2023-03-03T04:46:19;98480.78;;;2.02;56.15
63343;BME280;49465;57.664;39.686;2023-03-03T04:48:48;98503.53;;;2.26;56.49
63343;BME280;49465;57.664;39.686;2023-03-03T04:51:17;98509.25;;;2.16;56.44
63343;BME280;49465;57.664;39.686;2023-03-03T04:53:46;98502.53;;;2.28;56.30
63343;BME280;49465;57.664;39.686;2023-03-03T04:56:13;98501.66;;;2.13;56.44
63343;BME280;49465;57.664;39.686;2023-03-03T04:58:45;98505.16;;;2.12;56.15
63343;BME280;49465;57.664;39.686;2023-03-03T05:01:13;98502.59;;;2.12;56.40
63343;BME280;49465;57.664;39.686;2023-03-03T05:03:40;98491.31;;;2.13;56.22
63343;BME280;49465;57.664;39.686;2023-03-03T05:06:13;98499.94;;;2.28;57.09
63343;BME280;49465;57.664;39.686;2023-03-03T05:08:39;98500.66;;;2.16;56.23
63343;BME280;49465;57.664;39.686;2023-03-03T05:11:08;98505.72;;;2.17;56.14
63343;BME280;49465;57.664;39.686;2023-03-03T05:13:34;98510.88;;;2.17;56.30
63343;BME280;49465;57.664;39.686;2023-03-03T05:16:03;98509.06;;;2.20;56.28
63343;BME280;49465;57.664;39.686;2023-03-03T05:18:32;98511.53;;;2.21;56.28
63343;BME280;49465;57.664;39.686;2023-03-03T05:20:59;98506.22;;;2.24;56.40
63343;BME280;49465;57.664;39.686;2023-03-03T05:23:25;98506.13;;;2.26;55.85
63343;BME280;49465;57.664;39.686;2023-03-03T05:25:55;98508.72;;;2.40;56.30
63343;BME280;49465;57.664;39.686;2023-03-03T05:28:22;98501.03;;;2.24;56.22
63343;BME280;49465;57.664;39.686;2023-03-03T05:30:54;98498.38;;;2.40;56.87
63343;BME280;49465;57.664;39.686;2023-03-03T05:33:23;98498.28;;;2.42;55.89
63343;BME280;49465;57.664;39.686;2023-03-03T05:35:53;98496.25;;;2.47;56.65
63343;BME280;49465;57.664;39.686;2023-03-03T05:38:20;98490.16;;;2.33;56.04
63343;BME280;49465;57.664;39.686;2023-03-03T05:40:53;98500.31;;;2.36;56.50
63343;BME280;49465;57.664;39.686;2023-03-03T05:43:21;98501.63;;;2.44;56.32
63343;BME280;49465;57.664;39.686;2023-03-03T05:45:53;98507.31;;;2.34;56.37
63343;BME280;49465;57.664;39.686;2023-03-03T05:48:22;98501.53;;;2.60;56.50
63343;BME280;49465;57.664;39.686;2023-03-03T05:50:51;98506.50;;;2.48;56.31
63343;BME280;49465;57.664;39.686;2023-03-03T05:53:18;98514.63;;;2.42;56.39
63343;BME280;49465;57.664;39.686;2023-03-03T05:55:50;98507.53;;;2.60;56.77
63343;BME280;49465;57.664;39.686;2023-03-03T05:58:20;98509.66;;;2.68;56.16
63343;BME280;49465;57.664;39.686;2023-03-03T06:00:51;98507.00;;;2.55;55.99
63343;BME280;49465;57.664;39.686;2023-03-03T06:03:21;98502.34;;;2.60;56.58
63343;BME280;49465;57.664;39.686;2023-03-03T06:05:47;98507.63;;;2.58;56.14
63343;BME280;49465;57.664;39.686;2023-03-03T06:08:19;98510.97;;;2.75;56.28
63343;BME280;49465;57.664;39.686;2023-03-03T06:10:50;98515.50;;;2.57;56.41
63343;BME280;49465;57.664;39.686;2023-03-03T06:13:20;98505.78;;;2.46;57.09
63343;BME280;49465;57.664;39.686;2023-03-03T06:15:49;98512.72;;;2.74;56.45
63343;BME280;49465;57.664;39.686;2023-03-03T06:18:22;98509.75;;;2.66;57.01
63343;BME280;49465;57.664;39.686;2023-03-03T06:20:55;98504.75;;;2.77;56.80
63343;BME280;49465;57.664;39.686;2023-03-03T06:23:27;98507.69;;;2.86;56.99
63343;BME280;49465;57.664;39.686;2023-03-03T06:25:58;98507.97;;;2.95;56.40
63343;BME280;49465;57.664;39.686;2023-03-03T06:28:27;98500.50;;;2.91;55.83
63343;BME280;49465;57.664;39.686;2023-03-03T06:30:59;98514.38;;;3.04;57.00
63343;BME280;49465;57.664;39.686;2023-03-03T06:33:34;98509.31;;;3.15;56.70
63343;BME280;49465;57.664;39.686;2023-03-03T06:36:05;98505.56;;;3.07;56.69
63343;BME280;49465;57.664;39.686;2023-03-03T06:38:34;98503.44;;;2.99;56.48
63343;BME280;49465;57.664;39.686;2023-03-03T06:41:08;98506.47;;;3.06;56.40
63343;BME280;49465;57.664;39.686;2023-03-03T06:43:36;98499.25;;;3.11;56.59
63343;BME280;49465;57.664;39.686;2023-03-03T06:46:06;98503.53;;;3.12;57.12
63343;BME280;49465;57.664;39.686;2023-03-03T06:48:35;98495.06;;;3.23;57.46
63343;BME280;49465;57.664;39.686;2023-03-03T06:51:32;98502.03;;;3.49;56.76
63343;BME280;49465;57.664;39.686;2023-03-03T06:54:09;98492.75;;;3.32;57.38
63343;BME280;49465;57.664;39.686;2023-03-03T06:56:39;98491.38;;;3.27;57.67
63343;BME280;49465;57.664;39.686;2023-03-03T06:59:30;98499.09;;;3.68;57.00
63343;BME280;49465;57.664;39.686;2023-03-03T07:01:57;98489.97;;;3.35;57.21
63343;BME280;49465;57.664;39.686;2023-03-03T07:04:32;98496.88;;;3.49;57.92
63343;BME280;49465;57.664;39.686;2023-03-03T07:07:22;98494.59;;;3.85;56.71
63343;BME280;49465;57.664;39.686;2023-03-03T07:09:57;98492.44;;;3.64;57.28
63343;BME280;49465;57.664;39.686;2023-03-03T07:12:39;98490.88;;;3.62;57.11
63343;BME280;49465;57.664;39.686;2023-03-03T07:17:44;98483.03;;;3.63;57.09
63343;BME280;49465;57.664;39.686;2023-03-03T07:20:22;98483.28;;;3.86;57.72
63343;BME280;49465;57.664;39.686;2023-03-03T07:22:50;98481.66;;;3.58;56.87
63343;BME280;49465;57.664;39.686;2023-03-03T07:25:31;98483.25;;;3.73;56.94
63343;BME280;49465;57.664;39.686;2023-03-03T07:28:25;98486.13;;;4.08;55.90
63343;BME280;49465;57.664;39.686;2023-03-03T07:30:56;98484.00;;;3.88;57.57
63343;BME280;49465;57.664;39.686;2023-03-03T07:33:39;98485.06;;;3.98;56.95
63343;BME280;49465;57.664;39.686;2023-03-03T07:36:17;98485.81;;;4.64;54.24
63343;BME280;49465;57.664;39.686;2023-03-03T07:38:53;98484.84;;;4.01;56.73
63343;BME280;49465;57.664;39.686;2023-03-03T07:41:39;98495.03;;;4.17;57.13
63343;BME280;49465;57.664;39.686;2023-03-03T07:44:18;98492.22;;;4.07;56.49
63343;BME280;49465;57.664;39.686;2023-03-03T07:46:48;98485.03;;;3.85;56.89
63343;BME280;49465;57.664;39.686;2023-03-03T07:49:36;98488.00;;;4.19;56.48
63343;BME280;49465;57.664;39.686;2023-03-03T07:57:55;98495.22;;;4.01;57.73
63343;BME280;49465;57.664;39.686;2023-03-03T08:03:38;98499.06;;;3.95;57.45
63343;BME280;49465;57.664;39.686;2023-03-03T08:14:15;98499.69;;;3.99;57.73
63343;BME280;49465;57.664;39.686;2023-03-03T08:16:55;98501.38;;;4.00;57.64
63343;BME280;49465;57.664;39.686;2023-03-03T08:19:29;98493.69;;;4.11;57.08
63343;BME280;49465;57.664;39.686;2023-03-03T08:22:15;98501.72;;;4.34;57.25
63343;BME280;49465;57.664;39.686;2023-03-03T08:24:42;98493.81;;;4.10;57.38
63343;BME280;49465;57.664;39.686;2023-03-03T08:27:11;98508.22;;;4.14;57.86
63343;BME280;49465;57.664;39.686;2023-03-03T08:29:37;98498.78;;;4.13;57.39
63343;BME280;49465;57.664;39.686;2023-03-03T08:32:07;98500.63;;;4.11;56.58
63343;BME280;49465;57.664;39.686;2023-03-03T08:34:36;98506.56;;;4.13;57.16
63343;BME280;49465;57.664;39.686;2023-03-03T08:37:02;98511.97;;;4.10;57.16
63343;BME280;49465;57.664;39.686;2023-03-03T08:39:32;98512.78;;;4.23;56.48
63343;BME280;49465;57.664;39.686;2023-03-03T08:42:06;98511.34;;;4.19;56.70
63343;BME280;49465;57.664;39.686;2023-03-03T08:44:32;98509.91;;;4.28;56.06
63343;BME280;49465;57.664;39.686;2023-03-03T08:47:01;98516.13;;;4.38;55.78
63343;BME280;49465;57.664;39.686;2023-03-03T08:49:32;98518.91;;;4.35;55.54
63343;BME280;49465;57.664;39.686;2023-03-03T08:52:04;98510.03;;;4.39;55.56
63343;BME280;49465;57.664;39.686;2023-03-03T08:54:31;98514.28;;;4.27;56.23
63343;BME280;49465;57.664;39.686;2023-03-03T08:56:57;98521.00;;;4.43;55.55
63343;BME280;49465;57.664;39.686;2023-03-03T08:59:31;98519.16;;;4.32;55.28
63343;BME280;49465;57.664;39.686;2023-03-03T09:02:11;98526.63;;;4.36;56.00
63343;BME280;49465;57.664;39.686;2023-03-03T09:04:39;98522.78;;;4.29;56.71
63343;BME280;49465;57.664;39.686;2023-03-03T09:07:05;98524.31;;;4.45;55.77
63343;BME280;49465;57.664;39.686;2023-03-03T09:09:34;98518.03;;;4.49;55.08
63343;BME280;49465;57.664;39.686;2023-03-03T09:12:29;98522.34;;;4.87;55.52
63343;BME280;49465;57.664;39.686;2023-03-03T09:15:05;98524.44;;;4.69;55.41
63343;BME280;49465;57.664;39.686;2023-03-03T09:17:34;98524.34;;;4.58;55.95
63343;BME280;49465;57.664;39.686;2023-03-03T09:22:52;98530.69;;;4.79;55.53
63343;BME280;49465;57.664;39.686;2023-03-03T09:25:38;98538.56;;;4.90;55.09
63343;BME280;49465;57.664;39.686;2023-03-03T09:28:32;98539.19;;;4.81;55.98
63343;BME280;49465;57.664;39.686;2023-03-03T09:31:59;98547.69;;;4.96;55.50
63343;BME280;49465;57.664;39.686;2023-03-03T09:34:39;98537.81;;;5.01;55.40
63343;BME280;49465;57.664;39.686;2023-03-03T09:43:11;98544.41;;;5.31;54.87
63343;BME280;49465;57.664;39.686;2023-03-03T09:46:08;98545.91;;;5.09;55.42
63343;BME280;49465;57.664;39.686;2023-03-03T09:48:56;98554.75;;;5.07;55.40
63343;BME280;49465;57.664;39.686;2023-03-03T09:56:53;98545.16;;;5.20;55.28
63343;BME280;49465;57.664;39.686;2023-03-03T09:59:47;98546.69;;;5.60;54.96
63343;BME280;49465;57.664;39.686;2023-03-03T10:06:40;98549.69;;;5.66;55.30
63343;BME280;49465;57.664;39.686;2023-03-03T10:11:22;98555.47;;;5.59;54.49
63343;BME280;49465;57.664;39.686;2023-03-03T10:14:37;98547.50;;;5.73;54.89
63343;BME280;49465;57.664;39.686;2023-03-03T10:23:02;98553.88;;;5.56;53.28
63343;BME280;49465;57.664;39.686;2023-03-03T10:25:41;98557.19;;;5.95;53.18
63343;BME280;49465;57.664;39.686;2023-03-03T10:28:30;98556.13;;;5.98;53.69
63343;BME280;49465;57.664;39.686;2023-03-03T11:00:23;98563.81;;;5.75;54.10
63343;BME280;49465;57.664;39.686;2023-03-03T11:11:47;98561.38;;;5.85;52.37
63343;BME280;49465;57.664;39.686;2023-03-03T11:14:32;98558.94;;;5.94;51.50
63343;BME280;49465;57.664;39.686;2023-03-03T11:17:13;98570.00;;;5.85;51.74
63343;BME280;49465;57.664;39.686;2023-03-03T11:20:08;98570.00;;;6.09;50.17
63343;BME280;49465;57.664;39.686;2023-03-03T11:23:01;98567.97;;;6.02;51.55
63343;BME280;49465;57.664;39.686;2023-03-03T11:39:19;98568.38;;;5.84;50.50
63343;BME280;49465;57.664;39.686;2023-03-03T11:44:54;98559.75;;;6.19;51.62
63343;BME280;49465;57.664;39.686;2023-03-03T11:47:41;98561.66;;;6.17;50.98
63343;BME280;49465;57.664;39.686;2023-03-03T11:50:15;98571.44;;;5.89;50.19
63343;BME280;49465;57.664;39.686;2023-03-03T11:55:30;98559.13;;;6.04;50.91
63343;BME280;49465;57.664;39.686;2023-03-03T11:58:27;98566.19;;;6.26;50.68
63343;BME280;49465;57.664;39.686;2023-03-03T12:04:05;98559.75;;;6.54;49.50
63343;BME280;49465;57.664;39.686;2023-03-03T12:12:15;98550.31;;;7.32;49.75
63343;BME280;49465;57.664;39.686;2023-03-03T12:15:05;98551.25;;;6.98;49.94
63343;BME280;49465;57.664;39.686;2023-03-03T12:17:45;98544.16;;;6.77;49.77
63343;BME280;49465;57.664;39.686;2023-03-03T12:20:33;98553.63;;;6.67;49.23
63343;BME280;49465;57.664;39.686;2023-03-03T12:35:28;98560.63;;;7.00;48.61
63343;BME280;49465;57.664;39.686;2023-03-03T12:38:10;98562.88;;;6.93;50.27
63343;BME280;49465;57.664;39.686;2023-03-03T12:44:03;98559.78;;;7.00;48.94
63343;BME280;49465;57.664;39.686;2023-03-03T12:49:15;98553.88;;;6.98;48.46
63343;BME280;49465;57.664;39.686;2023-03-03T12:54:56;98554.91;;;7.29;49.05
63343;BME280;49465;57.664;39.686;2023-03-03T13:06:30;98564.25;;;7.65;47.88
63343;BME280;49465;57.664;39.686;2023-03-03T13:14:55;98555.28;;;7.47;48.89
63343;BME280;49465;57.664;39.686;2023-03-03T13:17:31;98568.31;;;7.24;48.55
63343;BME280;49465;57.664;39.686;2023-03-03T13:32:02;98556.72;;;6.95;47.42
63343;BME280;49465;57.664;39.686;2023-03-03T13:37:39;98557.13;;;7.56;48.13
63343;BME280;49465;57.664;39.686;2023-03-03T13:40:23;98553.38;;;7.38;47.64
63343;BME280;49465;57.664;39.686;2023-03-03T13:43:04;98550.31;;;6.76;47.33
63343;BME280;49465;57.664;39.686;2023-03-03T13:48:20;98548.44;;;7.01;46.93
63343;BME280;49465;57.664;39.686;2023-03-03T13:50:56;98543.44;;;7.09;47.33
63343;BME280;49465;57.664;39.686;2023-03-03T13:54:11;98543.72;;;7.06;47.31
63343;BME280;49465;57.664;39.686;2023-03-03T13:56:42;98550.91;;;7.36;47.41
63343;BME280;49465;57.664;39.686;2023-03-03T13:59:29;98560.84;;;7.31;46.98
63343;BME280;49465;57.664;39.686;2023-03-03T14:10:30;98548.31;;;7.02;47.26
63343;BME280;49465;57.664;39.686;2023-03-03T14:13:05;98549.25;;;7.01;47.32
63343;BME280;49465;57.664;39.686;2023-03-03T14:16:01;98542.59;;;7.31;46.96
63343;BME280;49465;57.664;39.686;2023-03-03T14:21:26;98544.88;;;7.13;46.90
63343;BME280;49465;57.664;39.686;2023-03-03T14:27:00;98548.31;;;7.13;47.09
63343;BME280;49465;57.664;39.686;2023-03-03T14:29:41;98548.28;;;6.80;46.76
63343;BME280;49465;57.664;39.686;2023-03-03T14:32:27;98553.97;;;7.07;46.80
63343;BME280;49465;57.664;39.686;2023-03-03T14:35:16;98549.63;;;7.08;47.11
63343;BME280;49465;57.664;39.686;2023-03-03T14:37:47;98563.44;;;6.63;46.00
63343;BME280;49465;57.664;39.686;2023-03-03T14:40:31;98568.91;;;7.05;46.89
63343;BME280;49465;57.664;39.686;2023-03-03T14:43:04;98559.19;;;6.73;46.52
63343;BME280;49465;57.664;39.686;2023-03-03T14:45:46;98569.94;;;6.58;46.39
63343;BME280;49465;57.664;39.686;2023-03-03T14:48:19;98567.09;;;6.72;46.15
63343;BME280;49465;57.664;39.686;2023-03-03T14:50:59;98571.63;;;6.81;46.39
63343;BME280;49465;57.664;39.686;2023-03-03T14:53:47;98575.53;;;6.76;46.61
63343;BME280;49465;57.664;39.686;2023-03-03T14:56:34;98575.06;;;6.82;46.14
63343;BME280;49465;57.664;39.686;2023-03-03T14:59:23;98574.72;;;6.98;46.52
63343;BME280;49465;57.664;39.686;2023-03-03T15:02:19;98577.81;;;6.80;46.70
63343;BME280;49465;57.664;39.686;2023-03-03T15:04:52;98575.34;;;6.43;46.14
63343;BME280;49465;57.664;39.686;2023-03-03T15:07:38;98585.91;;;6.53;46.61
63343;BME280;49465;57.664;39.686;2023-03-03T15:10:08;98590.63;;;6.48;45.78
63343;BME280;49465;57.664;39.686;2023-03-03T15:12:41;98591.44;;;6.48;46.10
63343;BME280;49465;57.664;39.686;2023-03-03T15:15:21;98594.34;;;6.57;45.96
63343;BME280;49465;57.664;39.686;2023-03-03T15:18:00;98597.56;;;6.36;46.28
63343;BME280;49465;57.664;39.686;2023-03-03T15:23:55;98598.41;;;6.37;46.25
63343;BME280;49465;57.664;39.686;2023-03-03T15:29:35;98607.69;;;6.52;46.55
63343;BME280;49465;57.664;39.686;2023-03-03T15:38:22;98613.72;;;6.52;46.70
63343;BME280;49465;57.664;39.686;2023-03-03T15:50:27;98617.97;;;6.18;47.00
63343;BME280;49465;57.664;39.686;2023-03-03T16:01:48;98614.25;;;6.09;47.06
63343;BME280;49465;57.664;39.686;2023-03-03T16:04:20;98614.50;;;5.69;46.88
63343;BME280;49465;57.664;39.686;2023-03-03T16:10:06;98617.53;;;5.87;47.59
63343;BME280;49465;57.664;39.686;2023-03-03T16:18:57;98621.38;;;5.94;47.51
63343;BME280;49465;57.664;39.686;2023-03-03T16:27:42;98624.50;;;6.00;47.01
63343;BME280;49465;57.664;39.686;2023-03-03T16:30:39;98622.72;;;5.63;47.28
63343;BME280;49465;57.664;39.686;2023-03-03T16:39:19;98625.16;;;5.78;47.63
63343;BME280;49465;57.664;39.686;2023-03-03T16:42:06;98625.00;;;5.68;47.93
63343;BME280;49465;57.664;39.686;2023-03-03T16:56:33;98636.22;;;5.68;48.07
63343;BME280;49465;57.664;39.686;2023-03-03T17:01:57;98640.31;;;5.47;47.77
63343;BME280;49465;57.664;39.686;2023-03-03T17:10:40;98629.56;;;5.27;48.45
63343;BME280;49465;57.664;39.686;2023-03-03T17:13:47;98632.56;;;5.34;48.57
63343;BME280;49465;57.664;39.686;2023-03-03T17:16:50;98634.09;;;5.49;48.47
63343;BME280;49465;57.664;39.686;2023-03-03T17:35:57;98631.22;;;5.15;49.10
63343;BME280;49465;57.664;39.686;2023-03-03T17:42:01;98630.97;;;5.44;48.52
63343;BME280;49465;57.664;39.686;2023-03-03T17:47:31;98626.44;;;4.97;48.37
63343;BME280;49465;57.664;39.686;2023-03-03T18:04:19;98630.19;;;5.05;47.45
63343;BME280;49465;57.664;39.686;2023-03-03T18:22:24;98648.22;;;4.68;47.02
63343;BME280;49465;57.664;39.686;2023-03-03T18:25:02;98638.03;;;4.52;47.42
63343;BME280;49465;57.664;39.686;2023-03-03T18:28:20;98636.16;;;4.54;47.90
63343;BME280;49465;57.664;39.686;2023-03-03T18:30:29;98631.78;;;4.42;47.73
63343;BME280;49465;57.664;39.686;2023-03-03T18:33:11;98631.41;;;4.61;48.05
63343;BME280;49465;57.664;39.686;2023-03-03T18:35:46;98642.47;;;4.38;47.80
63343;BME280;49465;57.664;39.686;2023-03-03T18:38:26;98637.94;;;4.14;46.69
63343;BME280;49465;57.664;39.686;2023-03-03T18:40:59;98637.97;;;4.27;46.85
63343;BME280;49465;57.664;39.686;2023-03-03T18:49:09;98652.69;;;4.53;47.36
63343;BME280;49465;57.664;39.686;2023-03-03T19:04:54;98653.84;;;4.22;46.98
63343;BME280;49465;57.664;39.686;2023-03-03T19:07:42;98651.38;;;4.06;47.21
63343;BME280;49465;57.664;39.686;2023-03-03T19:13:02;98650.75;;;4.03;47.32
63343;BME280;49465;57.664;39.686;2023-03-03T19:15:47;98652.41;;;4.04;46.76
63343;BME280;49465;57.664;39.686;2023-03-03T19:18:21;98647.75;;;3.82;47.25
63343;BME280;49465;57.664;39.686;2023-03-03T19:38:27;98662.72;;;3.91;46.77
63343;BME280;49465;57.664;39.686;2023-03-03T19:46:54;98654.13;;;3.76;48.03
63343;BME280;49465;57.664;39.686;2023-03-03T19:50:28;98650.53;;;3.64;47.46